Latest Weather Observations for Camooweal

IDD60801

Issued at 11:31 am CST Tuesday 2 March 2021 (issued every 10 minutes, with the page automatically refreshed every 10 minutes)

About weather observations | Map of weather stations | Latest weather observations for NT | Other Formats
Station Details ID: 037010 Name: CAMOOWEAL TOWNSHIP Lat: -19.92 Lon: 138.12 Height: 231.2 m
Data from the previous 72 hours. | See also: Recent months at Camooweal
Date/Time
CST
Temp
°C
App
Temp
°C
Dew
Point
°C
Rel
Hum
%
Delta-T
°C
Wind Press
QNH
hPa
Press
MSL
hPa
Rain since
9am
mm
Dir  Spd
km/h
Gust
km/h
Spd
kts
Gust
kts
02/11:30am 36.2 35.9 16.4 31 12.7 SE 13 28 7 15 1008.8 1007.2 0.0
02/11:00am 35.7 36.4 17.9 35 11.7 ESE 11 20 6 11 1009.2 1007.6 0.0
02/10:30am 35.6 37.0 18.7 37 11.2 ESE 9 15 5 8 1009.5 1007.9 0.0
02/10:00am 34.8 35.3 16.6 33 11.7 SSE 9 13 5 7 1009.7 1008.1 0.0
02/09:30am 33.7 35.6 19.7 43 9.4 SE 9 13 5 7 1009.8 1008.2 0.0
02/09:00am 32.2 34.1 19.8 48 8.3 SSE 9 11 5 6 1009.8 1008.2 0.0
02/08:30am 31.0 32.9 19.7 51 7.5 SSE 9 13 5 7 1009.4 1007.8 0.0
02/08:00am 29.5 31.4 19.8 56 6.4 SSE 9 13 5 7 1009.4 1007.8 0.0
02/07:30am 27.8 29.7 19.8 61 5.3 SSE 9 11 5 6 1009.0 1007.4 0.0
02/07:00am 25.4 27.8 20.9 76 3.0 SE 9 11 5 6 1008.6 1007.0 0.0
02/06:30am 23.8 26.3 19.9 79 2.5 SSW 6 7 3 4 1008.3 1006.7 0.0
02/06:00am 24.0 26.2 19.3 75 3.0 ESE 6 7 3 4 1007.8 1006.2 0.0
02/05:30am 24.6 26.3 19.4 73 3.4 E 9 9 5 5 1007.6 1006.0 0.0
02/05:00am 24.4 27.9 19.5 74 3.2 CALM 0 9 0 5 1007.3 1005.7 0.0
02/04:30am 24.3 27.5 18.9 72 3.5 CALM 0 7 0 4 1007.1 1005.5 0.0
02/04:00am 24.8 27.9 18.7 69 3.9 CALM 0 6 0 3 1006.9 1005.3 0.0
02/03:30am 25.8 27.9 19.0 66 4.4 WNW 6 7 3 4 1007.0 1005.4 0.0
02/03:00am 26.1 29.3 18.8 64 4.7 CALM 0 0 0 0 1006.9 1005.3 0.0
02/02:30am 26.5 28.4 18.6 62 5.1 ENE 6 7 3 4 1007.1 1005.5 0.0
02/02:00am 26.5 28.6 18.1 60 5.4 NE 4 6 2 3 1007.1 1005.5 0.0
02/01:30am 27.4 28.7 18.4 58 5.8 NNE 9 11 5 6 1007.2 1005.6 0.0
02/01:00am 27.9 28.8 18.3 56 6.2 NNE 11 13 6 7 1007.4 1005.8 0.0
02/12:30am 28.3 28.6 18.7 56 6.2 N 15 22 8 12 1007.6 1006.0 0.0
02/12:00am 29.1 29.0 18.8 53 6.7 NNE 17 26 9 14 1007.7 1006.1 0.0
 
Date/Time
CST
Temp
°C
App
Temp
°C
Dew
Point
°C
Rel
Hum
%
Delta-T
°C
Wind Press
QNH
hPa
Press
MSL
hPa
Rain since
9am
mm
Dir  Spd
km/h
Gust
km/h
Spd
kts
Gust
kts
01/11:30pm 29.5 28.5 18.9 53 6.9 NE 22 30 12 16 1007.7 1006.1 0.0
01/11:00pm 31.2 29.0 17.9 45 8.6 NE 26 37 14 20 1007.7 1006.1 0.0
01/10:30pm 30.3 30.2 17.0 44 8.5 ENE 13 15 7 8 1007.6 1006.0 0.0
01/10:00pm 30.5 31.6 16.5 43 8.9 NNW 6 7 3 4 1007.2 1005.6 0.0
01/09:30pm 31.0 31.6 15.8 40 9.5 NNW 7 11 4 6 1006.7 1005.1 0.0
01/09:00pm 31.9 30.8 15.4 37 10.3 NNE 15 20 8 11 1006.4 1004.8 0.0
01/08:30pm 33.5 32.4 17.2 37 10.5 NE 19 26 10 14 1006.3 1004.7 0.0
01/08:00pm 34.5 32.5 17.3 36 11.1 ESE 24 41 13 22 1005.9 1004.3 0.0
01/07:57pm 34.2 33.1 17.4 36 10.9 SE 19 41 10 22 1005.9 1004.3 0.0
01/07:30pm 33.2 33.1 13.3 30 12.2 WSW 6 7 3 4 1005.4 1003.8 0.0
01/07:00pm 34.3 34.0 12.6 27 13.1 WSW 6 7 3 4 1005.0 1003.4 0.0
01/06:30pm 36.3 35.9 12.5 24 14.5 WSW 6 7 3 4 1004.7 1003.1 0.0
01/06:00pm 37.8 36.8 12.4 22 15.5 SSW 9 13 5 7 1004.6 1003.0 0.0
01/05:30pm 38.7 35.9 10.1 18 17.0 SSW 15 20 8 11 1004.5 1002.9 0.0
01/05:00pm 39.1 36.8 10.4 18 17.1 SSW 13 19 7 10 1004.4 1002.8 0.0
01/04:30pm 39.2 36.5 8.8 16 17.8 SSE 13 19 7 10 1004.1 1002.5 0.0
01/04:00pm 39.6 35.7 7.1 14 18.5 S 17 26 9 14 1004.2 1002.6 0.0
01/03:30pm 39.5 35.3 8.1 15 18.2 SSE 20 30 11 16 1004.3 1002.7 0.0
01/03:00pm 38.9 34.8 8.5 16 17.6 S 20 33 11 18 1004.6 1003.0 0.0
01/02:30pm 39.2 36.0 11.3 19 16.9 SSW 19 26 10 14 1005.0 1003.4 0.0
01/02:00pm 39.1 35.7 10.4 18 17.1 S 19 30 10 16 1005.2 1003.6 0.0
01/01:30pm 38.9 37.3 14.0 23 15.7 SSW 15 24 8 13 1005.9 1004.3 0.0
01/01:00pm 37.7 36.2 14.3 25 14.7 SSW 15 22 8 12 1006.4 1004.8 0.0
01/12:30pm 36.4 35.2 15.0 28 13.5 S 15 22 8 12 1006.8 1005.2 0.0
01/12:00pm 35.9 34.7 16.1 30 12.7 S 17 22 9 12 1007.2 1005.6 0.0
01/11:30am 34.9 33.6 15.7 31 12.2 SSW 17 26 9 14 1007.6 1006.0 0.0
01/11:00am 34.3 33.2 15.2 31 12.0 S 15 19 8 10 1007.8 1006.2 0.0
01/10:30am 33.9 33.2 15.4 33 11.7 S 13 17 7 9 1008.1 1006.5 0.0
01/10:00am 32.8 32.3 15.8 36 10.7 SSE 13 17 7 9 1008.4 1006.8 0.0
01/09:30am 31.6 31.3 15.5 37 10.1 S 11 17 6 9 1008.3 1006.7 0.0
01/09:00am 30.1 29.6 15.0 40 9.3 SSE 11 15 6 8 1008.3 1006.6 0.0
01/08:30am 28.6 27.3 12.5 37 9.5 SSE 11 13 6 7 1008.3 1006.6 0.0
01/08:00am 26.0 24.2 8.0 32 9.7 SSE 7 9 4 5 1008.2 1006.4 0.0
01/07:30am 21.9 20.2 8.4 42 7.2 SSW 7 7 4 4 1008.0 1006.2 0.0
01/07:00am 19.6 17.6 8.6 49 5.8 S 9 9 5 5 1007.5 1005.7 0.0
01/06:30am 18.4 16.5 9.2 55 4.9 SSW 9 11 5 6 1007.2 1005.4 0.0
01/06:00am 18.1 16.5 8.9 55 4.8 S 7 9 4 5 1007.0 1005.2 0.0
01/05:30am 18.5 17.4 8.5 52 5.2 S 4 7 2 4 1006.9 1005.1 0.0
01/05:00am 19.6 17.4 7.7 46 6.2 SW 9 11 5 6 1006.8 1005.0 0.0
01/04:30am 20.0 18.5 9.0 49 5.9 SW 7 9 4 5 1006.9 1005.1 0.0
01/04:00am 21.1 18.9 8.0 43 6.9 SW 9 9 5 5 1007.0 1005.2 0.0
01/03:30am 21.3 19.7 8.6 44 6.8 SSW 7 7 4 4 1007.1 1005.3 0.0
01/03:00am 20.2 20.0 9.2 49 5.9 CALM 0 0 0 0 1007.1 1005.3 0.0
01/02:30am 21.3 20.5 6.4 38 7.6 CALM 0 0 0 0 1007.1 1005.3 0.0
01/02:00am 21.6 20.6 5.5 35 8.1 CALM 0 0 0 0 1007.2 1005.4 0.0
01/01:30am 22.6 21.1 5.1 32 8.8 SSE 2 6 1 3 1007.3 1005.5 0.0
01/01:00am 22.8 20.6 6.1 34 8.6 SSE 7 9 4 5 1007.4 1005.6 0.0
01/12:30am 22.2 20.4 7.2 38 7.8 SSW 6 6 3 3 1007.4 1005.6 0.0
01/12:00am 22.9 20.8 6.6 35 8.4 SSW 7 7 4 4 1007.5 1005.7 0.0
 
Date/Time
CST
Temp
°C
App
Temp
°C
Dew
Point
°C
Rel
Hum
%
Delta-T
°C
Wind Press
QNH
hPa
Press
MSL
hPa
Rain since
9am
mm
Dir  Spd
km/h
Gust
km/h
Spd
kts
Gust
kts
28/11:30pm 23.5 20.9 7.6 36 8.4 SSW 11 13 6 7 1007.5 1005.7 0.0
28/11:00pm 23.9 21.7 7.9 36 8.5 SSW 9 11 5 6 1007.4 1005.6 0.0
28/10:30pm 25.0 22.9 8.1 34 9.1 SW 9 11 5 6 1007.3 1005.5 0.0
28/10:00pm 25.1 23.1 8.6 35 9.0 SW 9 11 5 6 1007.2 1005.4 0.0
28/09:30pm 25.4 23.8 10.1 38 8.6 SW 9 13 5 7 1007.0 1005.2 0.0
28/09:00pm 25.7 24.2 10.7 39 8.5 SW 9 9 5 5 1006.7 1004.9 0.0
28/08:30pm 26.0 24.7 11.4 40 8.4 SW 9 11 5 6 1006.5 1004.7 0.0
28/08:00pm 26.7 25.5 10.4 36 9.2 SW 7 9 4 5 1006.2 1004.4 0.0
28/07:30pm 28.4 26.4 10.1 32 10.4 SW 11 13 6 7 1005.9 1004.2 0.0
28/07:00pm 29.5 27.9 10.1 30 11.1 SW 9 11 5 6 1005.6 1003.9 0.0
28/06:30pm 31.5 29.2 9.1 25 12.7 SW 11 13 6 7 1005.3 1003.6 0.0
28/06:00pm 33.8 30.7 5.4 17 15.3 SW 11 15 6 8 1005.1 1003.4 0.0
28/05:30pm 36.2 31.8 4.5 14 17.2 SSW 17 24 9 13 1004.7 1003.0 0.0
28/05:00pm 37.3 31.8 1.9 11 18.4 SSW 20 32 11 17 1004.3 1002.6 0.0
28/04:30pm 37.9 32.1 2.4 11 18.8 SSW 22 32 12 17 1004.4 1002.7 0.0
28/04:00pm 38.1 32.3 2.5 11 18.8 SSW 22 32 12 17 1004.6 1002.9 0.0
28/03:30pm 38.6 33.1 4.1 12 18.8 SSW 22 30 12 16 1004.8 1003.1 0.0
28/03:00pm 38.5 32.8 2.8 11 19.0 S 22 35 12 19 1005.1 1003.4 0.0
28/02:30pm 38.6 33.1 4.1 12 18.8 SSW 22 33 12 18 1005.5 1003.8 0.0
28/02:00pm 38.4 33.7 6.2 14 18.0 SSW 20 30 11 16 1005.9 1004.2 0.0
28/01:30pm 37.8 33.6 5.7 14 17.8 S 17 30 9 16 1006.4 1004.6 0.0
28/01:00pm 37.9 32.7 3.6 12 18.4 SSW 20 30 11 16 1006.7 1004.9 0.0
28/12:30pm 37.6 32.6 3.4 12 18.3 SSE 19 32 10 17 1007.2 1005.4 0.0
28/12:00pm 37.0 32.5 4.0 13 17.7 SE 17 28 9 15 1007.4 1005.6 0.0
28/11:30am 36.9 32.0 4.0 13 17.7 SE 19 26 10 14 1007.9 1006.1 0.0
28/11:00am 36.0 30.9 4.3 14 17.0 SE 20 28 11 15 1008.4 1006.7 0.0
28/10:30am 35.3 30.1 3.8 14 16.8 ESE 20 28 11 15 1008.9 1007.2 0.0
28/10:00am 34.9 30.6 7.9 19 15.3 ESE 20 28 11 15 1009.1 1007.4 0.0
28/09:30am 33.3 29.9 10.6 25 13.3 E 19 24 10 13 1009.3 1007.6 0.0
28/09:00am 32.3 29.5 11.5 28 12.3 E 17 24 9 13 1009.3 1007.6 0.0
28/08:30am 29.8 30.0 17.6 48 7.8 E 13 17 7 9 1009.3 1007.6 0.0
28/08:00am 26.9 26.6 14.3 46 7.6 E 9 13 5 7 1009.3 1007.6 0.0
28/07:30am 24.1 22.8 11.4 45 7.2 ESE 9 11 5 6 1009.2 1007.5 0.0
28/07:00am 20.6 20.5 9.5 49 6.0 CALM 0 0 0 0 1009.1 1007.4 0.0
28/06:30am 19.8 18.0 7.2 44 6.5 SSE 6 7 3 4 1008.6 1006.9 0.0
28/06:00am 18.5 16.1 8.5 52 5.2 SSW 11 13 6 7 1008.1 1006.3 0.0
28/05:30am 19.3 16.7 7.7 47 6.0 SW 11 17 6 9 1007.8 1006.0 0.0
28/05:00am 20.7 18.3 7.0 41 7.1 SSW 9 13 5 7 1007.7 1005.9 0.0
28/04:30am 20.9 20.1 6.4 39 7.4 CALM 0 0 0 0 1007.6 1005.8 0.0
28/04:00am 21.0 20.2 6.5 39 7.4 CALM 0 6 0 3 1007.7 1005.9 0.0
28/03:30am 22.0 19.8 5.4 34 8.4 SSW 6 7 3 4 1007.7 1005.9 0.0
28/03:00am 21.7 20.2 5.2 34 8.3 S 2 7 1 4 1007.7 1005.9 0.0
28/02:30am 22.5 20.2 5.0 32 8.8 SSE 6 9 3 5 1007.8 1006.0 0.0
28/02:00am 22.8 19.8 4.3 30 9.2 SSE 9 11 5 6 1007.9 1006.1 0.0
28/01:30am 24.3 20.4 3.6 26 10.3 ESE 13 20 7 11 1008.0 1006.2 0.0
28/01:00am 24.6 21.1 3.3 25 10.5 SE 11 17 6 9 1008.2 1006.4 0.0
28/12:30am 22.9 19.4 5.3 32 8.9 S 13 17 7 9 1008.0 1006.2 0.0
28/12:00am 23.3 21.0 7.4 36 8.4 SSW 9 11 5 6 1008.0 1006.2 0.0
 
Date/Time
CST
Temp
°C
App
Temp
°C
Dew
Point
°C
Rel
Hum
%
Delta-T
°C
Wind Press
QNH
hPa
Press
MSL
hPa
Rain since
9am
mm
Dir  Spd
km/h
Gust
km/h
Spd
kts
Gust
kts
27/11:30pm 24.2 22.6 8.6 37 8.5 SSW 7 11 4 6 1008.2 1006.4 0.0
27/11:00pm 24.1 22.8 11.1 44 7.3 S 9 9 5 5 1008.2 1006.4 0.0
27/10:30pm 24.6 23.2 12.2 46 7.2 SW 11 11 6 6 1007.9 1006.1 0.0
27/10:00pm 24.3 24.0 13.2 50 6.5 SW 7 9 4 5 1007.8 1006.0 0.0
27/09:30pm 25.1 24.5 12.3 45 7.4 SW 7 9 4 5 1007.6 1005.8 0.0
27/09:00pm 26.1 25.4 13.2 44 7.6 SSW 9 11 5 6 1007.2 1005.4 0.0
27/08:30pm 28.0 27.1 11.5 35 9.6 SW 7 9 4 5 1006.9 1005.1 0.0
27/08:00pm 30.1 28.6 8.5 26 12.0 SW 6 6 3 3 1006.4 1004.6 0.0
27/07:30pm 30.5 29.0 8.3 25 12.4 SW 6 7 3 4 1005.8 1004.1 0.0
27/07:00pm 31.8 30.2 8.1 23 13.2 SSW 6 7 3 4 1005.4 1003.7 0.0
27/06:30pm 33.5 31.4 6.7 19 14.8 SSE 7 11 4 6 1005.1 1003.4 0.0
27/06:00pm 35.1 32.2 4.6 15 16.4 SSE 9 17 5 9 1004.8 1003.1 0.0
27/05:30pm 36.0 31.9 4.3 14 17.1 SSE 15 20 8 11 1004.4 1002.7 0.0
27/05:00pm 36.5 32.7 3.7 13 17.5 SSE 13 20 7 11 1004.5 1002.8 0.0
27/04:30pm 36.7 32.3 4.9 14 17.4 SSE 17 24 9 13 1004.5 1002.8 0.0
27/04:00pm 36.7 32.1 3.8 13 17.6 SSE 17 26 9 14 1004.4 1002.7 0.0
27/03:30pm 36.9 32.8 6.0 15 17.2 SSE 17 30 9 16 1004.6 1002.9 0.0
27/03:00pm 37.2 32.5 5.3 14 17.5 S 19 26 10 14 1004.9 1003.2 0.0
27/02:30pm 36.5 31.7 4.7 14 17.3 S 19 28 10 15 1005.3 1003.6 0.0
27/02:00pm 36.7 31.5 3.8 13 17.6 SSE 20 30 11 16 1005.8 1004.1 0.0
27/01:30pm 36.5 31.5 4.7 14 17.3 SSE 20 28 11 15 1006.4 1004.6 0.0
27/01:00pm 36.2 30.4 2.3 12 17.7 SSE 22 33 12 18 1006.8 1005.0 0.0
27/12:30pm 35.7 29.8 4.1 14 16.9 S 24 35 13 19 1007.4 1005.6 0.0
27/12:00pm 35.4 28.9 2.8 13 17.0 SSE 26 32 14 17 1007.8 1006.0 0.0
27/11:30am 34.2 27.6 1.9 13 16.6 SSE 26 35 14 19 1008.3 1006.6 0.0

Other formats

Comma delimited format used in spreadsheet applications
http://www.bom.gov.au/fwo/IDD60801/IDD60801.94255.axf

JavaScript Object Notation format (JSON) in row-major order
http://www.bom.gov.au/fwo/IDD60801/IDD60801.94255.json

Data quality

Most of these data are generated automatically and are frequently updated. Quality checks on data are not normally performed. It is possible for incorrect values to appear. Refer to information at About Latest Weather Observations and please check the disclaimer before using these data.